Flight Track Log - Related Links

Times and Time Zones

All times are in EDT time to prevent confusion due to time zone crossing. See the ASQ3266 flight status page for this flight to view local times or setup timezone preferences in your user account.

Time Position Orientation Groundspeed Altitude Reporting Facility
EDT Latitude Longitude Course Direction KTS MPH feet Rate Location/Type
Sun 08:11:25 PM 27.7556 -97.4908 35° Northeast 158 182 1,100  Level Houston Center
Sun 08:12:13 PM 27.7369 -97.4556 121° Southeast 175 201 2,700 1,774 Climbing Houston Center
Sun 08:13:20 PM 27.8006 -97.4208 26° Northeast 273 314 4,500 1,932 Climbing Houston Center
Sun 08:14:00 PM 27.8984 -97.4328 344° North  Level FlightAware Approximate
Sun 08:14:11 PM 27.8611 -97.4000 17° North 279 321 6,500  Level Houston Center
Sun 08:15:00 PM 27.9471 -97.3923 35° Northeast  Level FlightAware Approximate
Sun 08:15:13 PM 27.9353 -97.3769 15° North 276 318 8,700  Level Houston Center
Sun 08:16:00 PM 27.9971 -97.3523 35° Northeast  Level FlightAware Approximate
Sun 08:16:15 PM 28.0153 -97.3392 23° Northeast 300 345 10,200  Level Houston Center
Sun 08:17:17 PM 28.0900 -97.2744 37° Northeast 333 383 10,900 823 Climbing Houston Center
Sun 08:18:19 PM 28.1697 -97.2014 39° Northeast 363 418 11,900 1,065 Climbing Houston Center
Sun 08:19:21 PM 28.2678 -97.1108 39° Northeast 379 436 13,100 1,113 Climbing Houston Center
Sun 08:20:23 PM 28.3581 -97.0467 32° Northeast 381 438 14,200 1,016 Climbing Houston Center
Sun 08:21:25 PM 28.4492 -96.9806 33° Northeast 387 445 15,200 968 Climbing Houston Center
Sun 08:22:27 PM 28.5414 -96.9136 33° Northeast 393 452 16,200 871 Climbing Houston Center
Sun 08:23:29 PM 28.6328 -96.8456 33° Northeast 393 452 17,000 387 Climbing Houston Center
Sun 08:24:31 PM 28.7297 -96.7744 33° Northeast 412 474 17,000  Level Houston Center
Sun 08:25:32 PM 28.8492 -96.6861 33° Northeast 426 490 17,000  Level Houston Center
Sun 08:26:34 PM 28.9472 -96.6139 33° Northeast 424 488 17,000  Level Houston Center
Sun 08:27:36 PM 29.0439 -96.5408 33° Northeast 422 486 17,000  Level Houston Center
Sun 08:28:38 PM 29.1436 -96.4681 33° Northeast 426 490 17,000 -97 Level Houston Center
Sun 08:29:40 PM 29.2428 -96.3947 33° Northeast 427 491 16,800 -1,258 Descending Houston Center
Sun 08:30:42 PM 29.3589 -96.3072 33° Northeast 419 482 14,400 -2,595 Descending Houston Center
Sun 08:31:31 PM 29.4331 -96.2511 33° Northeast 391 450 12,000 -2,195 Descending Houston Center
Sun 08:32:45 PM 29.5386 -96.1719 33° Northeast 386 444 9,900 -976 Descending Houston Center
Sun 08:33:34 PM 29.5839 -96.1000 54° Northeast 327 376 10,000 -545 Climbing Houston Center
Sun 08:34:35 PM 29.6353 -96.0150 55° Northeast 302 348 8,900 -1,230 Descending Houston Center
Sun 08:35:36 PM 29.6853 -95.9369 54° Northeast 297 342 7,500 -1,263 Descending Houston Center
Sun 08:35:51 PM 29.6936 -95.9206 60° Northeast 295 339 7,300 -492 Descending Houston Center
Sun 08:36:37 PM 29.7408 -95.8778 38° Northeast 270 311 7,000 -290 Descending Houston Center
Sun 08:36:53 PM 29.7531 -95.8667 38° Northeast 277 319 7,000  Level Houston Center
Sun 08:37:44 PM 29.8114 -95.8214 34° Northeast 274 315 7,000 -214 Level Houston Center
Sun 08:38:45 PM 29.8783 -95.7703 34° Northeast 277 319 6,600 -672 Descending Houston Center
Sun 08:39:40 PM 29.9314 -95.7306 33° Northeast 248 285 5,700 -822 Descending Houston Center
Sun 08:39:58 PM 29.9422 -95.7219 35° Northeast 264 304 5,600 -787 Descending Houston Center
Sun 08:40:41 PM 29.9842 -95.6858 37° Northeast 222 255 4,900 -774 Descending Houston Center
Sun 08:41:00 PM 29.9903 -95.6764 53° Northeast 236 272 4,800 -885 Descending Houston Center
Sun 08:41:42 PM 29.9922 -95.6100 88° East 243 280 4,000 -968 Descending Houston Center
Sun 08:42:02 PM 29.9928 -95.6014 86° East 237 273 3,800 -964 Descending Houston Center
Sun 08:42:38 PM 29.9925 -95.5450 90° East 214 246 3,100 -1,082 Descending Houston Center
Sun 08:43:03 PM 29.9928 -95.5178 89° East 221 254 2,700 -960 Descending Houston Center

Login

Don't have an account? Register now (free) for customized features, flight alerts, and more!